sensor_id;sensor_type;location;lat;lon;timestamp;P1;durP1;ratioP1;P2;durP2;ratioP2
62037;SDS011;47991;42.974;12.082;2023-02-12T00:01:11;12.10;;;5.60;;
62037;SDS011;47991;42.974;12.082;2023-02-12T00:03:39;12.00;;;6.00;;
62037;SDS011;47991;42.974;12.082;2023-02-12T00:06:08;13.30;;;6.20;;
62037;SDS011;47991;42.974;12.082;2023-02-12T00:08:38;12.70;;;5.70;;
62037;SDS011;47991;42.974;12.082;2023-02-12T00:11:10;12.80;;;6.00;;
62037;SDS011;47991;42.974;12.082;2023-02-12T00:13:40;12.40;;;6.40;;
62037;SDS011;47991;42.974;12.082;2023-02-12T00:16:09;14.50;;;7.20;;
62037;SDS011;47991;42.974;12.082;2023-02-12T00:18:38;11.90;;;6.70;;
62037;SDS011;47991;42.974;12.082;2023-02-12T00:21:08;12.10;;;6.60;;
62037;SDS011;47991;42.974;12.082;2023-02-12T00:23:36;12.60;;;6.90;;
62037;SDS011;47991;42.974;12.082;2023-02-12T00:28:35;12.60;;;6.60;;
62037;SDS011;47991;42.974;12.082;2023-02-12T00:31:03;11.80;;;6.10;;
62037;SDS011;47991;42.974;12.082;2023-02-12T00:33:32;11.90;;;6.10;;
62037;SDS011;47991;42.974;12.082;2023-02-12T00:35:59;11.30;;;6.20;;
62037;SDS011;47991;42.974;12.082;2023-02-12T00:38:27;13.20;;;6.70;;
62037;SDS011;47991;42.974;12.082;2023-02-12T00:40:55;16.70;;;7.10;;
62037;SDS011;47991;42.974;12.082;2023-02-12T00:43:23;13.30;;;6.50;;
62037;SDS011;47991;42.974;12.082;2023-02-12T00:45:52;14.50;;;7.50;;
62037;SDS011;47991;42.974;12.082;2023-02-12T00:48:21;13.70;;;7.10;;
62037;SDS011;47991;42.974;12.082;2023-02-12T00:50:48;14.50;;;6.90;;
62037;SDS011;47991;42.974;12.082;2023-02-12T00:53:18;12.80;;;6.90;;
62037;SDS011;47991;42.974;12.082;2023-02-12T00:55:46;12.70;;;6.50;;
62037;SDS011;47991;42.974;12.082;2023-02-12T00:58:13;13.00;;;6.10;;
62037;SDS011;47991;42.974;12.082;2023-02-12T01:00:42;12.40;;;6.30;;
62037;SDS011;47991;42.974;12.082;2023-02-12T01:03:10;13.50;;;6.50;;
62037;SDS011;47991;42.974;12.082;2023-02-12T01:05:37;14.00;;;7.40;;
62037;SDS011;47991;42.974;12.082;2023-02-12T01:08:05;13.30;;;7.00;;
62037;SDS011;47991;42.974;12.082;2023-02-12T01:10:34;14.50;;;6.60;;
62037;SDS011;47991;42.974;12.082;2023-02-12T01:13:02;13.30;;;6.20;;
62037;SDS011;47991;42.974;12.082;2023-02-12T01:15:30;13.00;;;6.40;;
62037;SDS011;47991;42.974;12.082;2023-02-12T01:17:57;14.00;;;6.20;;
62037;SDS011;47991;42.974;12.082;2023-02-12T01:20:26;13.00;;;6.80;;
62037;SDS011;47991;42.974;12.082;2023-02-12T01:22:53;13.30;;;6.70;;
62037;SDS011;47991;42.974;12.082;2023-02-12T01:25:21;13.50;;;6.80;;
62037;SDS011;47991;42.974;12.082;2023-02-12T01:27:51;15.30;;;6.60;;
62037;SDS011;47991;42.974;12.082;2023-02-12T01:30:21;12.40;;;6.50;;
62037;SDS011;47991;42.974;12.082;2023-02-12T01:32:51;11.80;;;6.60;;
62037;SDS011;47991;42.974;12.082;2023-02-12T01:35:19;13.80;;;7.00;;
62037;SDS011;47991;42.974;12.082;2023-02-12T01:37:47;13.30;;;6.80;;
62037;SDS011;47991;42.974;12.082;2023-02-12T01:40:15;14.40;;;6.60;;
62037;SDS011;47991;42.974;12.082;2023-02-12T01:42:45;11.90;;;6.10;;
62037;SDS011;47991;42.974;12.082;2023-02-12T01:47:41;13.50;;;6.70;;
62037;SDS011;47991;42.974;12.082;2023-02-12T01:50:12;14.90;;;6.30;;
62037;SDS011;47991;42.974;12.082;2023-02-12T01:52:47;13.10;;;6.30;;
62037;SDS011;47991;42.974;12.082;2023-02-12T01:55:19;12.30;;;6.40;;
62037;SDS011;47991;42.974;12.082;2023-02-12T01:57:48;11.50;;;5.80;;
62037;SDS011;47991;42.974;12.082;2023-02-12T02:00:19;11.60;;;6.50;;
62037;SDS011;47991;42.974;12.082;2023-02-12T02:02:50;12.70;;;6.60;;
62037;SDS011;47991;42.974;12.082;2023-02-12T02:05:41;12.70;;;6.10;;
62037;SDS011;47991;42.974;12.082;2023-02-12T02:08:20;13.10;;;6.80;;
62037;SDS011;47991;42.974;12.082;2023-02-12T02:10:48;13.10;;;7.40;;
62037;SDS011;47991;42.974;12.082;2023-02-12T02:13:16;13.00;;;6.90;;
62037;SDS011;47991;42.974;12.082;2023-02-12T02:16:11;13.00;;;6.90;;
62037;SDS011;47991;42.974;12.082;2023-02-12T02:24:31;13.50;;;6.80;;
62037;SDS011;47991;42.974;12.082;2023-02-12T02:33:42;12.60;;;6.00;;
62037;SDS011;47991;42.974;12.082;2023-02-12T02:36:22;13.70;;;6.60;;
62037;SDS011;47991;42.974;12.082;2023-02-12T02:39:15;12.60;;;6.30;;
62037;SDS011;47991;42.974;12.082;2023-02-12T02:41:54;11.90;;;6.00;;
62037;SDS011;47991;42.974;12.082;2023-02-12T02:44:31;18.20;;;7.60;;
62037;SDS011;47991;42.974;12.082;2023-02-12T02:47:04;17.40;;;7.60;;
62037;SDS011;47991;42.974;12.082;2023-02-12T02:49:40;12.10;;;6.70;;
62037;SDS011;47991;42.974;12.082;2023-02-12T02:52:17;14.20;;;7.20;;
62037;SDS011;47991;42.974;12.082;2023-02-12T02:54:53;15.10;;;7.70;;
62037;SDS011;47991;42.974;12.082;2023-02-12T02:58:02;13.10;;;6.70;;
62037;SDS011;47991;42.974;12.082;2023-02-12T03:03:28;11.60;;;6.10;;
62037;SDS011;47991;42.974;12.082;2023-02-12T03:05:54;13.30;;;7.20;;
62037;SDS011;47991;42.974;12.082;2023-02-12T03:08:34;14.20;;;7.30;;
62037;SDS011;47991;42.974;12.082;2023-02-12T03:11:11;13.30;;;7.10;;
62037;SDS011;47991;42.974;12.082;2023-02-12T03:13:54;13.10;;;6.70;;
62037;SDS011;47991;42.974;12.082;2023-02-12T03:16:27;14.80;;;6.40;;
62037;SDS011;47991;42.974;12.082;2023-02-12T03:19:01;13.00;;;6.90;;
62037;SDS011;47991;42.974;12.082;2023-02-12T03:21:53;11.10;;;6.10;;
62037;SDS011;47991;42.974;12.082;2023-02-12T03:27:36;13.50;;;6.90;;
62037;SDS011;47991;42.974;12.082;2023-02-12T03:30:09;13.10;;;7.00;;
62037;SDS011;47991;42.974;12.082;2023-02-12T03:32:54;13.70;;;6.50;;
62037;SDS011;47991;42.974;12.082;2023-02-12T03:35:54;12.60;;;7.30;;
62037;SDS011;47991;42.974;12.082;2023-02-12T03:38:32;14.00;;;7.00;;
62037;SDS011;47991;42.974;12.082;2023-02-12T03:41:11;14.20;;;6.60;;
62037;SDS011;47991;42.974;12.082;2023-02-12T03:43:49;13.60;;;6.80;;
62037;SDS011;47991;42.974;12.082;2023-02-12T03:46:26;12.60;;;6.50;;
62037;SDS011;47991;42.974;12.082;2023-02-12T03:51:49;14.90;;;7.70;;
62037;SDS011;47991;42.974;12.082;2023-02-12T03:54:17;13.10;;;6.80;;
62037;SDS011;47991;42.974;12.082;2023-02-12T03:57:01;14.70;;;6.40;;
62037;SDS011;47991;42.974;12.082;2023-02-12T03:59:34;12.90;;;6.60;;
62037;SDS011;47991;42.974;12.082;2023-02-12T04:02:04;13.60;;;6.40;;
62037;SDS011;47991;42.974;12.082;2023-02-12T04:04:31;11.60;;;6.10;;
62037;SDS011;47991;42.974;12.082;2023-02-12T04:07:00;12.90;;;6.40;;
62037;SDS011;47991;42.974;12.082;2023-02-12T04:09:28;12.50;;;6.20;;
62037;SDS011;47991;42.974;12.082;2023-02-12T04:17:52;13.60;;;7.00;;
62037;SDS011;47991;42.974;12.082;2023-02-12T04:20:53;12.80;;;6.30;;
62037;SDS011;47991;42.974;12.082;2023-02-12T04:28:56;12.50;;;6.30;;
62037;SDS011;47991;42.974;12.082;2023-02-12T04:37:20;11.50;;;5.80;;
62037;SDS011;47991;42.974;12.082;2023-02-12T04:39:52;10.90;;;5.60;;
62037;SDS011;47991;42.974;12.082;2023-02-12T04:42:20;12.90;;;5.90;;
62037;SDS011;47991;42.974;12.082;2023-02-12T04:44:47;12.40;;;6.60;;
62037;SDS011;47991;42.974;12.082;2023-02-12T04:47:15;12.50;;;6.00;;
62037;SDS011;47991;42.974;12.082;2023-02-12T04:49:43;12.60;;;6.10;;
62037;SDS011;47991;42.974;12.082;2023-02-12T04:52:10;12.90;;;6.30;;
62037;SDS011;47991;42.974;12.082;2023-02-12T04:54:38;12.60;;;6.20;;
62037;SDS011;47991;42.974;12.082;2023-02-12T04:57:05;12.50;;;6.10;;
62037;SDS011;47991;42.974;12.082;2023-02-12T04:59:33;10.80;;;5.90;;
62037;SDS011;47991;42.974;12.082;2023-02-12T05:02:00;14.70;;;6.40;;
62037;SDS011;47991;42.974;12.082;2023-02-12T05:04:28;12.10;;;6.30;;
62037;SDS011;47991;42.974;12.082;2023-02-12T05:06:56;12.80;;;6.80;;
62037;SDS011;47991;42.974;12.082;2023-02-12T05:09:23;13.30;;;6.70;;
62037;SDS011;47991;42.974;12.082;2023-02-12T05:11:52;15.00;;;7.20;;
62037;SDS011;47991;42.974;12.082;2023-02-12T05:14:23;17.60;;;7.10;;
62037;SDS011;47991;42.974;12.082;2023-02-12T05:16:51;14.30;;;6.90;;
62037;SDS011;47991;42.974;12.082;2023-02-12T05:19:20;14.80;;;7.00;;
62037;SDS011;47991;42.974;12.082;2023-02-12T05:21:48;13.00;;;6.60;;
62037;SDS011;47991;42.974;12.082;2023-02-12T05:24:17;13.00;;;6.70;;
62037;SDS011;47991;42.974;12.082;2023-02-12T05:26:48;13.20;;;6.70;;
62037;SDS011;47991;42.974;12.082;2023-02-12T05:29:16;13.10;;;7.10;;
62037;SDS011;47991;42.974;12.082;2023-02-12T05:31:44;15.30;;;7.60;;
62037;SDS011;47991;42.974;12.082;2023-02-12T05:34:11;16.70;;;7.20;;
62037;SDS011;47991;42.974;12.082;2023-02-12T05:36:40;13.70;;;6.80;;
62037;SDS011;47991;42.974;12.082;2023-02-12T05:39:09;14.20;;;6.90;;
62037;SDS011;47991;42.974;12.082;2023-02-12T05:41:37;12.60;;;6.50;;
62037;SDS011;47991;42.974;12.082;2023-02-12T05:44:05;13.00;;;7.20;;
62037;SDS011;47991;42.974;12.082;2023-02-12T05:46:33;11.60;;;6.30;;
62037;SDS011;47991;42.974;12.082;2023-02-12T05:49:00;12.50;;;6.70;;
62037;SDS011;47991;42.974;12.082;2023-02-12T05:51:27;14.00;;;6.90;;
62037;SDS011;47991;42.974;12.082;2023-02-12T05:53:57;14.50;;;7.40;;
62037;SDS011;47991;42.974;12.082;2023-02-12T05:56:30;14.00;;;7.30;;
62037;SDS011;47991;42.974;12.082;2023-02-12T05:59:14;15.30;;;7.20;;
62037;SDS011;47991;42.974;12.082;2023-02-12T06:01:48;13.30;;;6.60;;
62037;SDS011;47991;42.974;12.082;2023-02-12T06:04:24;15.70;;;8.00;;
62037;SDS011;47991;42.974;12.082;2023-02-12T06:06:54;14.30;;;7.60;;
62037;SDS011;47991;42.974;12.082;2023-02-12T06:09:23;14.80;;;7.70;;
62037;SDS011;47991;42.974;12.082;2023-02-12T06:11:51;14.80;;;7.00;;
62037;SDS011;47991;42.974;12.082;2023-02-12T06:14:19;13.30;;;7.30;;
62037;SDS011;47991;42.974;12.082;2023-02-12T06:16:48;14.40;;;7.60;;
62037;SDS011;47991;42.974;12.082;2023-02-12T06:19:17;16.30;;;6.90;;
62037;SDS011;47991;42.974;12.082;2023-02-12T06:21:45;13.70;;;7.40;;
62037;SDS011;47991;42.974;12.082;2023-02-12T06:24:14;11.80;;;7.00;;
62037;SDS011;47991;42.974;12.082;2023-02-12T10:26:41;17.30;;;10.60;;
62037;SDS011;47991;42.974;12.082;2023-02-12T10:29:19;15.80;;;10.10;;
62037;SDS011;47991;42.974;12.082;2023-02-12T10:31:51;15.40;;;8.20;;
62037;SDS011;47991;42.974;12.082;2023-02-12T10:34:32;15.00;;;8.80;;
62037;SDS011;47991;42.974;12.082;2023-02-12T10:37:08;13.90;;;8.10;;
62037;SDS011;47991;42.974;12.082;2023-02-12T10:39:40;14.00;;;8.00;;
62037;SDS011;47991;42.974;12.082;2023-02-12T10:44:44;13.70;;;7.90;;
62037;SDS011;47991;42.974;12.082;2023-02-12T10:47:20;16.30;;;9.00;;
62037;SDS011;47991;42.974;12.082;2023-02-12T10:49:59;15.60;;;8.40;;
62037;SDS011;47991;42.974;12.082;2023-02-12T10:53:01;15.80;;;9.60;;
62037;SDS011;47991;42.974;12.082;2023-02-12T10:55:33;13.20;;;8.40;;
62037;SDS011;47991;42.974;12.082;2023-02-12T10:58:03;15.60;;;8.70;;
62037;SDS011;47991;42.974;12.082;2023-02-12T11:00:43;13.70;;;8.20;;
62037;SDS011;47991;42.974;12.082;2023-02-12T11:05:41;15.90;;;9.50;;
62037;SDS011;47991;42.974;12.082;2023-02-12T11:08:30;18.40;;;12.30;;
62037;SDS011;47991;42.974;12.082;2023-02-12T11:11:05;15.80;;;9.30;;
62037;SDS011;47991;42.974;12.082;2023-02-12T11:13:39;13.60;;;8.70;;
62037;SDS011;47991;42.974;12.082;2023-02-12T11:16:14;15.30;;;8.80;;
62037;SDS011;47991;42.974;12.082;2023-02-12T11:19:00;16.20;;;9.70;;
62037;SDS011;47991;42.974;12.082;2023-02-12T11:21:30;14.10;;;8.90;;
62037;SDS011;47991;42.974;12.082;2023-02-12T11:27:21;18.40;;;11.40;;
62037;SDS011;47991;42.974;12.082;2023-02-12T11:29:45;19.30;;;13.10;;
62037;SDS011;47991;42.974;12.082;2023-02-12T11:32:30;15.30;;;9.80;;
62037;SDS011;47991;42.974;12.082;2023-02-12T11:35:20;17.60;;;10.20;;
62037;SDS011;47991;42.974;12.082;2023-02-12T11:38:01;17.10;;;9.90;;
62037;SDS011;47991;42.974;12.082;2023-02-12T11:40:32;15.10;;;9.80;;
62037;SDS011;47991;42.974;12.082;2023-02-12T11:43:04;16.90;;;11.60;;
62037;SDS011;47991;42.974;12.082;2023-02-12T11:45:35;18.30;;;10.50;;
62037;SDS011;47991;42.974;12.082;2023-02-12T11:48:18;15.60;;;9.60;;
62037;SDS011;47991;42.974;12.082;2023-02-12T11:50:50;15.60;;;10.10;;
62037;SDS011;47991;42.974;12.082;2023-02-12T11:53:22;15.20;;;9.90;;
62037;SDS011;47991;42.974;12.082;2023-02-12T11:56:10;18.30;;;10.70;;
62037;SDS011;47991;42.974;12.082;2023-02-12T11:58:39;18.40;;;10.60;;
62037;SDS011;47991;42.974;12.082;2023-02-12T12:04:05;15.00;;;10.00;;
62037;SDS011;47991;42.974;12.082;2023-02-12T12:09:17;16.60;;;10.50;;
62037;SDS011;47991;42.974;12.082;2023-02-12T12:15:01;16.00;;;11.10;;
62037;SDS011;47991;42.974;12.082;2023-02-12T12:17:57;16.80;;;11.20;;
62037;SDS011;47991;42.974;12.082;2023-02-12T12:20:52;24.60;;;13.10;;
62037;SDS011;47991;42.974;12.082;2023-02-12T12:23:27;20.30;;;11.90;;
62037;SDS011;47991;42.974;12.082;2023-02-12T12:26:05;16.40;;;9.70;;
62037;SDS011;47991;42.974;12.082;2023-02-12T12:28:40;16.30;;;10.00;;
62037;SDS011;47991;42.974;12.082;2023-02-12T12:31:29;16.80;;;10.10;;
62037;SDS011;47991;42.974;12.082;2023-02-12T12:39:47;16.60;;;10.40;;
62037;SDS011;47991;42.974;12.082;2023-02-12T12:45:30;15.70;;;9.60;;
62037;SDS011;47991;42.974;12.082;2023-02-12T12:48:30;19.40;;;10.70;;
62037;SDS011;47991;42.974;12.082;2023-02-12T12:51:27;16.60;;;10.40;;
62037;SDS011;47991;42.974;12.082;2023-02-12T12:57:09;16.10;;;10.00;;
62037;SDS011;47991;42.974;12.082;2023-02-12T12:59:52;14.50;;;8.60;;
62037;SDS011;47991;42.974;12.082;2023-02-12T13:05:44;22.60;;;11.10;;
62037;SDS011;47991;42.974;12.082;2023-02-12T13:17:09;15.60;;;11.30;;
62037;SDS011;47991;42.974;12.082;2023-02-12T13:19:54;17.80;;;11.80;;
62037;SDS011;47991;42.974;12.082;2023-02-12T13:22:59;17.80;;;11.50;;
62037;SDS011;47991;42.974;12.082;2023-02-12T13:25:43;17.00;;;10.80;;
62037;SDS011;47991;42.974;12.082;2023-02-12T13:28:54;15.30;;;10.20;;
62037;SDS011;47991;42.974;12.082;2023-02-12T13:31:19;17.60;;;10.70;;
62037;SDS011;47991;42.974;12.082;2023-02-12T13:33:51;18.80;;;11.50;;
62037;SDS011;47991;42.974;12.082;2023-02-12T13:36:25;16.30;;;10.90;;
62037;SDS011;47991;42.974;12.082;2023-02-12T13:39:00;17.80;;;11.00;;
62037;SDS011;47991;42.974;12.082;2023-02-12T13:41:36;18.90;;;11.00;;
62037;SDS011;47991;42.974;12.082;2023-02-12T13:44:18;17.90;;;11.40;;
62037;SDS011;47991;42.974;12.082;2023-02-12T13:50:04;19.90;;;14.80;;
62037;SDS011;47991;42.974;12.082;2023-02-12T13:52:48;17.70;;;12.30;;
62037;SDS011;47991;42.974;12.082;2023-02-12T13:55:27;42.30;;;31.10;;
62037;SDS011;47991;42.974;12.082;2023-02-12T14:01:01;17.10;;;11.00;;
62037;SDS011;47991;42.974;12.082;2023-02-12T14:03:30;25.40;;;16.60;;
62037;SDS011;47991;42.974;12.082;2023-02-12T14:06:12;16.70;;;10.60;;
62037;SDS011;47991;42.974;12.082;2023-02-12T14:08:43;14.60;;;9.60;;
62037;SDS011;47991;42.974;12.082;2023-02-12T14:11:18;14.80;;;9.30;;
62037;SDS011;47991;42.974;12.082;2023-02-12T14:24:56;15.70;;;9.30;;
62037;SDS011;47991;42.974;12.082;2023-02-12T14:27:26;13.50;;;9.10;;
62037;SDS011;47991;42.974;12.082;2023-02-12T14:35:38;12.90;;;8.20;;
62037;SDS011;47991;42.974;12.082;2023-02-12T14:40:47;13.50;;;8.50;;
62037;SDS011;47991;42.974;12.082;2023-02-12T14:46:44;14.50;;;8.70;;
62037;SDS011;47991;42.974;12.082;2023-02-12T14:51:32;14.70;;;9.70;;
62037;SDS011;47991;42.974;12.082;2023-02-12T14:54:03;14.00;;;8.90;;
62037;SDS011;47991;42.974;12.082;2023-02-12T14:56:44;15.70;;;9.40;;
62037;SDS011;47991;42.974;12.082;2023-02-12T14:59:18;24.00;;;13.20;;
62037;SDS011;47991;42.974;12.082;2023-02-12T15:01:50;42.10;;;22.60;;
62037;SDS011;47991;42.974;12.082;2023-02-12T15:07:02;23.90;;;13.10;;
62037;SDS011;47991;42.974;12.082;2023-02-12T15:09:35;40.30;;;21.10;;
62037;SDS011;47991;42.974;12.082;2023-02-12T15:12:25;31.50;;;17.40;;
62037;SDS011;47991;42.974;12.082;2023-02-12T15:15:03;25.30;;;13.30;;
62037;SDS011;47991;42.974;12.082;2023-02-12T15:17:40;18.40;;;10.80;;
62037;SDS011;47991;42.974;12.082;2023-02-12T15:20:22;24.40;;;12.40;;
62037;SDS011;47991;42.974;12.082;2023-02-12T15:22:57;16.90;;;10.00;;
62037;SDS011;47991;42.974;12.082;2023-02-12T15:25:29;17.10;;;9.80;;
62037;SDS011;47991;42.974;12.082;2023-02-12T15:28:03;15.40;;;9.80;;
62037;SDS011;47991;42.974;12.082;2023-02-12T15:30:41;18.10;;;11.10;;
62037;SDS011;47991;42.974;12.082;2023-02-12T15:33:15;16.80;;;10.90;;
62037;SDS011;47991;42.974;12.082;2023-02-12T15:35:53;19.10;;;11.80;;
62037;SDS011;47991;42.974;12.082;2023-02-12T15:38:27;21.20;;;13.90;;
62037;SDS011;47991;42.974;12.082;2023-02-12T15:44:19;19.00;;;11.50;;
62037;SDS011;47991;42.974;12.082;2023-02-12T15:49:51;17.30;;;11.20;;
62037;SDS011;47991;42.974;12.082;2023-02-12T15:52:29;16.80;;;10.70;;
62037;SDS011;47991;42.974;12.082;2023-02-12T15:55:02;17.70;;;11.80;;
62037;SDS011;47991;42.974;12.082;2023-02-12T15:57:31;21.70;;;12.70;;
62037;SDS011;47991;42.974;12.082;2023-02-12T16:00:03;15.90;;;10.60;;
62037;SDS011;47991;42.974;12.082;2023-02-12T16:02:39;20.00;;;11.90;;
62037;SDS011;47991;42.974;12.082;2023-02-12T16:07:41;18.70;;;11.90;;
62037;SDS011;47991;42.974;12.082;2023-02-12T16:10:12;18.40;;;12.50;;
62037;SDS011;47991;42.974;12.082;2023-02-12T16:12:41;18.50;;;11.80;;
62037;SDS011;47991;42.974;12.082;2023-02-12T16:18:22;22.50;;;12.00;;
62037;SDS011;47991;42.974;12.082;2023-02-12T16:23:37;25.20;;;12.40;;
62037;SDS011;47991;42.974;12.082;2023-02-12T16:26:14;23.00;;;12.30;;
62037;SDS011;47991;42.974;12.082;2023-02-12T16:28:45;16.90;;;11.10;;
62037;SDS011;47991;42.974;12.082;2023-02-12T16:31:14;21.70;;;12.50;;
62037;SDS011;47991;42.974;12.082;2023-02-12T16:33:50;18.30;;;11.90;;
62037;SDS011;47991;42.974;12.082;2023-02-12T16:38:51;17.30;;;10.30;;
62037;SDS011;47991;42.974;12.082;2023-02-12T16:41:24;14.80;;;8.80;;
62037;SDS011;47991;42.974;12.082;2023-02-12T16:46:20;18.00;;;11.30;;
62037;SDS011;47991;42.974;12.082;2023-02-12T16:48:48;17.70;;;11.10;;
62037;SDS011;47991;42.974;12.082;2023-02-12T16:51:31;18.40;;;11.20;;
62037;SDS011;47991;42.974;12.082;2023-02-12T16:54:01;17.00;;;10.30;;
62037;SDS011;47991;42.974;12.082;2023-02-12T16:56:32;17.30;;;10.60;;
62037;SDS011;47991;42.974;12.082;2023-02-12T16:59:04;18.60;;;10.50;;
62037;SDS011;47991;42.974;12.082;2023-02-12T17:01:33;17.40;;;10.10;;
62037;SDS011;47991;42.974;12.082;2023-02-12T17:04:06;16.90;;;10.10;;
62037;SDS011;47991;42.974;12.082;2023-02-12T17:06:40;19.30;;;12.10;;
62037;SDS011;47991;42.974;12.082;2023-02-12T17:09:07;17.10;;;10.90;;
62037;SDS011;47991;42.974;12.082;2023-02-12T17:11:35;16.60;;;10.30;;
62037;SDS011;47991;42.974;12.082;2023-02-12T17:14:03;16.10;;;9.40;;
62037;SDS011;47991;42.974;12.082;2023-02-12T17:16:31;17.60;;;10.00;;
62037;SDS011;47991;42.974;12.082;2023-02-12T17:18:59;16.30;;;9.10;;
62037;SDS011;47991;42.974;12.082;2023-02-12T17:21:30;14.60;;;9.20;;
62037;SDS011;47991;42.974;12.082;2023-02-12T17:24:05;15.10;;;8.20;;
62037;SDS011;47991;42.974;12.082;2023-02-12T17:26:38;14.90;;;8.90;;
62037;SDS011;47991;42.974;12.082;2023-02-12T17:29:05;19.60;;;8.60;;
62037;SDS011;47991;42.974;12.082;2023-02-12T17:31:33;13.90;;;8.70;;
62037;SDS011;47991;42.974;12.082;2023-02-12T17:34:05;15.40;;;8.50;;
62037;SDS011;47991;42.974;12.082;2023-02-12T17:36:33;15.10;;;9.40;;
62037;SDS011;47991;42.974;12.082;2023-02-12T17:39:02;16.30;;;9.00;;
62037;SDS011;47991;42.974;12.082;2023-02-12T17:41:30;14.60;;;8.60;;
62037;SDS011;47991;42.974;12.082;2023-02-12T17:43:58;16.00;;;9.50;;
62037;SDS011;47991;42.974;12.082;2023-02-12T17:46:27;13.90;;;8.10;;
62037;SDS011;47991;42.974;12.082;2023-02-12T17:48:55;13.70;;;7.50;;
62037;SDS011;47991;42.974;12.082;2023-02-12T17:51:24;12.60;;;7.10;;
62037;SDS011;47991;42.974;12.082;2023-02-12T17:53:51;15.70;;;9.50;;
62037;SDS011;47991;42.974;12.082;2023-02-12T17:56:20;15.10;;;8.20;;
62037;SDS011;47991;42.974;12.082;2023-02-12T17:58:51;14.40;;;8.50;;
62037;SDS011;47991;42.974;12.082;2023-02-12T18:01:20;15.50;;;8.70;;
62037;SDS011;47991;42.974;12.082;2023-02-12T18:03:50;14.00;;;8.30;;
62037;SDS011;47991;42.974;12.082;2023-02-12T18:06:23;15.00;;;7.30;;
62037;SDS011;47991;42.974;12.082;2023-02-12T18:08:52;12.40;;;7.00;;
62037;SDS011;47991;42.974;12.082;2023-02-12T18:11:21;12.50;;;6.90;;
62037;SDS011;47991;42.974;12.082;2023-02-12T18:13:50;12.50;;;6.70;;
62037;SDS011;47991;42.974;12.082;2023-02-12T18:16:19;16.80;;;7.50;;
62037;SDS011;47991;42.974;12.082;2023-02-12T18:18:47;14.80;;;7.90;;
62037;SDS011;47991;42.974;12.082;2023-02-12T18:21:16;14.50;;;7.00;;
62037;SDS011;47991;42.974;12.082;2023-02-12T18:23:45;12.60;;;7.30;;
62037;SDS011;47991;42.974;12.082;2023-02-12T18:26:14;11.90;;;6.50;;
62037;SDS011;47991;42.974;12.082;2023-02-12T18:28:44;13.00;;;7.20;;
62037;SDS011;47991;42.974;12.082;2023-02-12T18:31:12;11.40;;;6.40;;
62037;SDS011;47991;42.974;12.082;2023-02-12T18:33:41;10.80;;;5.90;;
62037;SDS011;47991;42.974;12.082;2023-02-12T18:36:11;12.60;;;6.80;;
62037;SDS011;47991;42.974;12.082;2023-02-12T18:38:40;13.10;;;6.40;;
62037;SDS011;47991;42.974;12.082;2023-02-12T18:41:09;12.10;;;6.50;;
62037;SDS011;47991;42.974;12.082;2023-02-12T18:43:42;14.10;;;7.90;;
62037;SDS011;47991;42.974;12.082;2023-02-12T18:46:14;11.50;;;6.50;;
62037;SDS011;47991;42.974;12.082;2023-02-12T18:48:50;11.30;;;5.50;;
62037;SDS011;47991;42.974;12.082;2023-02-12T18:51:19;11.90;;;5.70;;
62037;SDS011;47991;42.974;12.082;2023-02-12T18:56:32;12.30;;;6.50;;
62037;SDS011;47991;42.974;12.082;2023-02-12T18:59:03;13.50;;;6.40;;
62037;SDS011;47991;42.974;12.082;2023-02-12T19:01:32;11.50;;;6.20;;
62037;SDS011;47991;42.974;12.082;2023-02-12T19:04:01;25.10;;;7.20;;
62037;SDS011;47991;42.974;12.082;2023-02-12T19:06:32;10.70;;;5.40;;
62037;SDS011;47991;42.974;12.082;2023-02-12T19:09:05;11.90;;;5.50;;
62037;SDS011;47991;42.974;12.082;2023-02-12T19:11:34;11.00;;;5.30;;
62037;SDS011;47991;42.974;12.082;2023-02-12T19:14:03;11.30;;;6.00;;
62037;SDS011;47991;42.974;12.082;2023-02-12T19:16:32;11.60;;;6.10;;
62037;SDS011;47991;42.974;12.082;2023-02-12T19:18:59;11.40;;;5.40;;
62037;SDS011;47991;42.974;12.082;2023-02-12T19:21:29;9.80;;;5.20;;
62037;SDS011;47991;42.974;12.082;2023-02-12T19:23:59;17.10;;;5.00;;
62037;SDS011;47991;42.974;12.082;2023-02-12T19:26:29;12.40;;;5.10;;
62037;SDS011;47991;42.974;12.082;2023-02-12T19:29:01;10.90;;;5.60;;
62037;SDS011;47991;42.974;12.082;2023-02-12T19:31:34;9.90;;;5.00;;
62037;SDS011;47991;42.974;12.082;2023-02-12T19:34:04;10.40;;;5.40;;
62037;SDS011;47991;42.974;12.082;2023-02-12T19:36:47;10.20;;;4.80;;
62037;SDS011;47991;42.974;12.082;2023-02-12T19:39:16;9.80;;;4.70;;
62037;SDS011;47991;42.974;12.082;2023-02-12T19:41:46;10.70;;;5.30;;
62037;SDS011;47991;42.974;12.082;2023-02-12T19:44:15;11.10;;;5.40;;
62037;SDS011;47991;42.974;12.082;2023-02-12T19:46:46;10.90;;;5.60;;
62037;SDS011;47991;42.974;12.082;2023-02-12T19:49:17;11.10;;;5.50;;
62037;SDS011;47991;42.974;12.082;2023-02-12T19:51:49;12.50;;;5.50;;
62037;SDS011;47991;42.974;12.082;2023-02-12T19:54:17;11.50;;;5.00;;
62037;SDS011;47991;42.974;12.082;2023-02-12T19:56:47;9.00;;;4.40;;
62037;SDS011;47991;42.974;12.082;2023-02-12T19:59:17;11.00;;;4.90;;
62037;SDS011;47991;42.974;12.082;2023-02-12T20:01:46;9.80;;;5.20;;
62037;SDS011;47991;42.974;12.082;2023-02-12T20:04:16;10.70;;;5.30;;
62037;SDS011;47991;42.974;12.082;2023-02-12T20:06:46;9.20;;;4.70;;
62037;SDS011;47991;42.974;12.082;2023-02-12T20:09:18;10.00;;;5.00;;
62037;SDS011;47991;42.974;12.082;2023-02-12T20:11:47;8.70;;;4.20;;
62037;SDS011;47991;42.974;12.082;2023-02-12T20:14:16;10.30;;;4.80;;
62037;SDS011;47991;42.974;12.082;2023-02-12T20:16:46;9.30;;;4.10;;
62037;SDS011;47991;42.974;12.082;2023-02-12T20:19:19;9.10;;;4.10;;
62037;SDS011;47991;42.974;12.082;2023-02-12T20:21:49;8.60;;;3.80;;
62037;SDS011;47991;42.974;12.082;2023-02-12T20:24:25;9.40;;;4.60;;
62037;SDS011;47991;42.974;12.082;2023-02-12T20:26:54;9.80;;;4.60;;
62037;SDS011;47991;42.974;12.082;2023-02-12T20:29:23;8.40;;;3.70;;
62037;SDS011;47991;42.974;12.082;2023-02-12T20:31:51;10.30;;;4.80;;
62037;SDS011;47991;42.974;12.082;2023-02-12T20:34:19;11.00;;;4.90;;
62037;SDS011;47991;42.974;12.082;2023-02-12T20:36:47;10.10;;;4.90;;
62037;SDS011;47991;42.974;12.082;2023-02-12T20:39:16;9.50;;;4.80;;
62037;SDS011;47991;42.974;12.082;2023-02-12T20:41:45;9.30;;;4.90;;
62037;SDS011;47991;42.974;12.082;2023-02-12T20:44:14;10.40;;;4.90;;
62037;SDS011;47991;42.974;12.082;2023-02-12T20:46:44;10.40;;;4.60;;
62037;SDS011;47991;42.974;12.082;2023-02-12T20:49:14;10.00;;;5.40;;
62037;SDS011;47991;42.974;12.082;2023-02-12T20:51:43;10.80;;;5.40;;
62037;SDS011;47991;42.974;12.082;2023-02-12T20:54:11;9.30;;;5.10;;
62037;SDS011;47991;42.974;12.082;2023-02-12T20:56:39;10.80;;;5.80;;
62037;SDS011;47991;42.974;12.082;2023-02-12T20:59:06;10.30;;;5.10;;
62037;SDS011;47991;42.974;12.082;2023-02-12T21:01:35;9.90;;;4.90;;
62037;SDS011;47991;42.974;12.082;2023-02-12T21:04:08;9.80;;;4.40;;
62037;SDS011;47991;42.974;12.082;2023-02-12T21:06:39;11.10;;;5.50;;
62037;SDS011;47991;42.974;12.082;2023-02-12T21:09:08;11.30;;;5.30;;
62037;SDS011;47991;42.974;12.082;2023-02-12T21:11:37;9.90;;;4.30;;